createdAt,value
2023-05-09T00:01:43.324Z,100760.34
2023-05-09T00:04:13.884Z,100751.66
2023-05-09T00:06:44.352Z,100750.81
2023-05-09T00:09:14.801Z,100751.66
2023-05-09T00:11:45.782Z,100749.13
2023-05-09T00:14:16.099Z,100745.38
2023-05-09T00:16:50.133Z,100741.69
2023-05-09T00:19:20.745Z,100750.50
2023-05-09T00:21:51.253Z,100743.72
2023-05-09T00:24:22.047Z,100743.50
2023-05-09T00:26:52.663Z,100747.16
2023-05-09T00:29:23.582Z,100745.38
2023-05-09T00:31:54.438Z,100744.53
2023-05-09T00:34:25.011Z,100743.78
2023-05-09T00:36:55.881Z,100735.91
2023-05-09T00:39:26.239Z,100735.91
2023-05-09T00:41:58.904Z,100736.88
2023-05-09T00:44:29.443Z,100736.03
2023-05-09T00:47:00.059Z,100729.84
2023-05-09T00:49:30.736Z,100738.53
2023-05-09T00:52:02.582Z,100741.16
2023-05-09T00:54:33.469Z,100735.09
2023-05-09T00:57:03.753Z,100732.47
2023-05-09T00:59:34.397Z,100729.84
2023-05-09T01:02:04.976Z,100721.88
2023-05-09T01:04:35.858Z,100730.59
2023-05-09T01:07:24.739Z,100725.38
2023-05-09T01:10:13.616Z,100727.88
2023-05-09T01:12:57.947Z,100720.13
2023-05-09T01:15:36.231Z,100712.16
2023-05-09T01:18:15.657Z,100725.13
2023-05-09T01:21:10.331Z,100724.31
2023-05-09T01:24:13.606Z,100715.59
2023-05-09T01:26:44.223Z,100713.72
2023-05-09T01:29:59.148Z,100707.56
2023-05-09T01:32:32.772Z,100698.84
2023-05-09T01:35:06.946Z,100705.78
2023-05-09T01:37:44.013Z,100707.44
2023-05-09T01:40:22.356Z,100696.13
2023-05-09T01:42:56.811Z,100698.63
2023-05-09T01:45:29.246Z,100686.47
2023-05-09T01:48:00.947Z,100699.47
2023-05-09T01:50:32.932Z,100693.28
2023-05-09T01:53:05.358Z,100694.22
2023-05-09T01:55:38.930Z,100692.38
2023-05-09T01:58:10.415Z,100693.19
2023-05-09T02:00:41.241Z,100700.94
2023-05-09T02:03:13.193Z,100695.72
2023-05-09T02:05:44.937Z,100692.97
2023-05-09T02:08:18.396Z,100689.53
2023-05-09T02:10:50.670Z,100685.03
2023-05-09T02:13:21.424Z,100682.41
2023-05-09T02:15:52.794Z,100685.75
2023-05-09T02:18:23.416Z,100672.66
2023-05-09T02:20:54.514Z,100674.31
2023-05-09T02:23:25.155Z,100667.22
2023-05-09T02:25:56.330Z,100669.72
2023-05-09T02:28:29.731Z,100667.94
2023-05-09T02:31:02.164Z,100666.78
2023-05-09T02:33:34.885Z,100668.69
2023-05-09T02:36:06.139Z,100658.22
2023-05-09T02:38:38.323Z,100656.41
2023-05-09T02:41:09.060Z,100655.47
2023-05-09T02:43:40.407Z,100644.88
2023-05-09T02:46:12.109Z,100639.63
2023-05-09T02:48:43.510Z,100640.38
2023-05-09T02:51:13.909Z,100640.38
2023-05-09T02:53:44.773Z,100636.69
2023-05-09T02:56:15.324Z,100634.06
2023-05-09T02:58:52.528Z,100627.06
2023-05-09T03:01:23.312Z,100619.00
2023-05-09T03:03:54.554Z,100618.66
2023-05-09T03:06:25.650Z,100611.75
2023-05-09T03:08:56.661Z,100604.72
2023-05-09T03:11:28.133Z,100614.38
2023-05-09T03:13:58.949Z,100616.69
2023-05-09T03:16:30.236Z,100613.13
2023-05-09T03:19:02.173Z,100611.13
2023-05-09T03:21:33.603Z,100610.28
2023-05-09T03:24:06.271Z,100611.00
2023-05-09T03:26:37.514Z,100601.16
2023-05-09T03:29:08.005Z,100602.81
2023-05-09T03:31:38.620Z,100597.25
2023-05-09T03:34:14.555Z,100599.03
2023-05-09T03:36:46.779Z,100597.91
2023-05-09T03:39:18.911Z,100600.41
2023-05-09T03:41:52.046Z,100598.59
2023-05-09T03:44:22.969Z,100589.19
2023-05-09T03:46:53.476Z,100588.94
2023-05-09T03:49:25.060Z,100587.09
2023-05-09T03:51:57.105Z,100588.63
2023-05-09T03:54:29.508Z,100592.84
2023-05-09T03:57:00.399Z,100581.19
2023-05-09T03:59:31.042Z,100581.19
2023-05-09T04:02:01.752Z,100569.81
2023-05-09T04:04:33.039Z,100556.50
2023-05-09T04:07:04.783Z,100559.97
2023-05-09T04:09:35.691Z,100556.19
2023-05-09T04:12:06.896Z,100549.88
2023-05-09T04:14:37.650Z,100544.50
2023-05-09T04:17:08.314Z,100545.16
2023-05-09T04:19:38.633Z,100543.38
2023-05-09T04:22:09.143Z,100539.16
2023-05-09T04:24:39.801Z,100538.13
2023-05-09T04:27:11.475Z,100533.59
2023-05-09T04:29:42.920Z,100531.81
2023-05-09T04:32:13.721Z,100531.72
2023-05-09T04:34:44.250Z,100534.34
2023-05-09T04:37:20.906Z,100533.28
2023-05-09T04:39:51.367Z,100525.28
2023-05-09T04:42:27.914Z,100531.16
2023-05-09T04:44:59.012Z,100520.53
2023-05-09T04:47:31.457Z,100516.97
2023-05-09T04:50:01.986Z,100507.47
2023-05-09T04:52:32.539Z,100521.16
2023-05-09T04:55:04.041Z,100510.56
2023-05-09T04:57:39.539Z,100515.56
2023-05-09T05:00:12.909Z,100511.16
2023-05-09T05:02:44.105Z,100500.66
2023-05-09T05:05:15.839Z,100506.53
2023-05-09T05:07:47.119Z,100496.84
2023-05-09T05:10:22.594Z,100495.81
2023-05-09T05:12:59.692Z,100493.75
2023-05-09T05:15:30.444Z,100488.75
2023-05-09T05:18:01.677Z,100491.13
2023-05-09T05:20:36.976Z,100489.38
2023-05-09T05:23:07.576Z,100482.22
2023-05-09T05:25:38.175Z,100472.53
2023-05-09T05:28:09.503Z,100475.16
2023-05-09T05:30:43.243Z,100475.88
2023-05-09T05:33:14.245Z,100462.66
2023-05-09T05:35:45.465Z,100471.25
2023-05-09T05:38:15.928Z,100463.38
2023-05-09T05:40:51.179Z,100464.81
2023-05-09T05:43:24.095Z,100463.84
2023-05-09T05:45:54.841Z,100450.72
2023-05-09T05:48:27.012Z,100442.50
2023-05-09T05:50:58.063Z,100436.28
2023-05-09T05:53:32.770Z,100428.41
2023-05-09T05:56:03.308Z,100433.56
2023-05-09T05:58:35.096Z,100429.16
2023-05-09T06:01:06.758Z,100429.03
2023-05-09T06:03:38.241Z,100420.19
2023-05-09T06:06:10.146Z,100422.81
2023-05-09T06:08:40.437Z,100419.25
2023-05-09T06:11:10.966Z,100424.50
2023-05-09T06:13:41.411Z,100416.50
2023-05-09T06:16:19.509Z,100412.06
2023-05-09T06:18:55.871Z,100407.78
2023-05-09T06:21:26.831Z,100401.56
2023-05-09T06:24:08.343Z,100399.69
2023-05-09T06:26:42.827Z,100400.50
2023-05-09T06:29:13.596Z,100397.75
2023-05-09T06:31:43.903Z,100393.47
2023-05-09T06:34:14.452Z,100403.72
2023-05-09T06:36:45.430Z,100404.69
2023-05-09T06:39:15.933Z,100394.19
2023-05-09T06:41:46.327Z,100398.47
2023-05-09T06:44:26.845Z,100387.03
2023-05-09T06:46:57.608Z,100389.53
2023-05-09T06:49:28.384Z,100388.56
2023-05-09T06:51:58.967Z,100386.78
2023-05-09T06:54:29.639Z,100383.19
2023-05-09T06:57:00.068Z,100384.88
2023-05-09T06:59:30.541Z,100379.63
2023-05-09T07:02:01.253Z,100377.69
2023-05-09T07:04:32.088Z,100382.13
2023-05-09T07:07:02.642Z,100373.41
2023-05-09T07:09:33.675Z,100375.91
2023-05-09T07:12:04.094Z,100376.75
2023-05-09T07:14:34.499Z,100370.53
2023-05-09T07:17:21.092Z,100365.41
2023-05-09T07:19:53.945Z,100367.91
2023-05-09T07:22:24.507Z,100372.31
2023-05-09T07:24:54.992Z,100379.28
2023-05-09T07:27:25.481Z,100374.84
2023-05-09T07:29:57.010Z,100373.06
2023-05-09T07:32:30.158Z,100371.25
2023-05-09T07:34:59.955Z,100368.63
2023-05-09T07:37:30.259Z,100371.25
2023-05-09T07:40:00.724Z,100367.66
2023-05-09T07:42:34.141Z,100363.25
2023-05-09T07:45:07.575Z,100365.03
2023-05-09T07:47:38.748Z,100356.19
2023-05-09T07:50:09.859Z,100353.56
2023-05-09T07:52:40.512Z,100358.81
2023-05-09T07:55:11.287Z,100365.88
2023-05-09T07:57:41.780Z,100364.09
2023-05-09T08:00:13.335Z,100365.78
2023-05-09T08:02:43.538Z,100364.09
2023-05-09T08:05:15.199Z,100371.03
2023-05-09T08:07:45.925Z,100368.41
2023-05-09T08:10:16.852Z,100361.34
2023-05-09T08:12:47.625Z,100370.06
2023-05-09T08:15:18.283Z,100365.66
2023-05-09T08:17:49.117Z,100363.03
2023-05-09T08:20:19.776Z,100361.34
2023-05-09T08:22:50.234Z,100363.03
2023-05-09T08:25:22.350Z,100372.69
2023-05-09T08:27:53.124Z,100368.28
2023-05-09T08:30:24.816Z,100363.84
2023-05-09T08:32:55.364Z,100365.50
2023-05-09T08:35:26.794Z,100363.03
2023-05-09T08:37:57.194Z,100369.94
2023-05-09T08:40:27.860Z,100363.84
2023-05-09T08:42:58.559Z,100364.69
2023-05-09T08:45:32.532Z,100362.88
2023-05-09T08:48:05.673Z,100363.84
2023-05-09T08:50:37.114Z,100378.66
2023-05-09T08:53:08.459Z,100370.78
2023-05-09T08:55:39.611Z,100379.50
2023-05-09T08:58:16.218Z,100376.84
2023-05-09T09:00:47.144Z,100370.78
2023-05-09T09:03:19.100Z,100367.31
2023-05-09T09:05:50.896Z,100374.22
2023-05-09T09:08:21.903Z,100376.03
2023-05-09T09:10:52.506Z,100375.19
2023-05-09T09:13:25.282Z,100364.69
2023-05-09T09:15:56.762Z,100374.22
2023-05-09T09:18:32.318Z,100371.59
2023-05-09T09:21:11.528Z,100378.66
2023-05-09T09:23:45.765Z,100387.38
2023-05-09T09:26:17.018Z,100375.06
2023-05-09T09:28:47.713Z,100375.94
2023-05-09T09:31:26.367Z,100383.81
2023-05-09T09:34:07.001Z,100382.00
2023-05-09T09:36:40.430Z,100380.22
2023-05-09T09:39:15.083Z,100379.38
2023-05-09T09:41:46.391Z,100387.28
2023-05-09T09:44:20.120Z,100389.91
2023-05-09T09:46:53.493Z,100380.31
2023-05-09T09:49:28.487Z,100386.44
2023-05-09T09:52:00.329Z,100377.69
2023-05-09T09:54:31.121Z,100373.31
2023-05-09T09:57:01.852Z,100375.06
2023-05-09T09:59:32.374Z,100385.47
2023-05-09T10:02:08.039Z,100386.44
2023-05-09T10:04:43.402Z,100397.78
2023-05-09T10:07:15.197Z,100392.53
2023-05-09T10:09:45.692Z,100402.19
2023-05-09T10:12:21.100Z,100402.06
2023-05-09T10:14:51.682Z,100397.78
2023-05-09T10:17:24.460Z,100396.09
2023-05-09T10:19:55.096Z,100406.50
2023-05-09T10:22:26.593Z,100399.56
2023-05-09T10:27:40.199Z,100403.03
2023-05-09T10:30:23.174Z,100398.63
2023-05-09T10:33:10.152Z,100389.06
2023-05-09T10:35:46.846Z,100399.56
2023-05-09T10:38:19.212Z,100390.81
2023-05-09T10:40:49.965Z,100401.34
2023-05-09T10:43:21.192Z,100403.13
2023-05-09T10:45:52.028Z,100405.75
2023-05-09T10:48:22.831Z,100410.19
2023-05-09T10:50:54.529Z,100417.09
2023-05-09T10:53:26.386Z,100428.56
2023-05-09T10:56:03.580Z,100432.16
2023-05-09T10:58:38.893Z,100439.09
2023-05-09T11:01:09.670Z,100436.59
2023-05-09T11:03:58.008Z,100447.94
2023-05-09T11:06:53.675Z,100446.25
2023-05-09T11:09:42.881Z,100447.09
2023-05-09T11:12:16.141Z,100447.09
2023-05-09T11:14:48.449Z,100449.84
2023-05-09T11:17:24.737Z,100457.75
2023-05-09T11:19:55.138Z,100460.38
2023-05-09T11:22:46.477Z,100465.63
2023-05-09T11:25:18.348Z,100462.13
2023-05-09T11:27:53.562Z,100463.09
2023-05-09T11:30:23.975Z,100463.91
2023-05-09T11:33:00.518Z,100472.75
2023-05-09T11:35:32.021Z,100477.19
2023-05-09T11:38:06.600Z,100478.03
2023-05-09T11:40:37.658Z,100486.72
2023-05-09T11:43:10.851Z,100501.66
2023-05-09T11:45:42.022Z,100505.25
2023-05-09T11:48:12.801Z,100519.34
2023-05-09T11:50:43.359Z,100521.84
2023-05-09T11:53:14.186Z,100524.47
2023-05-09T11:55:44.644Z,100536.78
2023-05-09T11:58:16.025Z,100535.94
2023-05-09T12:00:47.560Z,100538.66
2023-05-09T12:03:18.130Z,100535.94
2023-05-09T12:05:50.730Z,100530.69
2023-05-09T12:08:21.264Z,100538.56
2023-05-09T12:10:52.475Z,100540.38
2023-05-09T12:13:22.912Z,100550.03
2023-05-09T12:15:53.774Z,100543.81
2023-05-09T12:18:25.576Z,100551.81
2023-05-09T12:20:56.423Z,100540.47
2023-05-09T12:23:27.008Z,100547.41
2023-05-09T12:25:59.312Z,100556.22
2023-05-09T12:28:30.436Z,100548.47
2023-05-09T12:31:01.315Z,100551.94
2023-05-09T12:33:33.309Z,100546.81
2023-05-09T12:36:11.776Z,100545.13
2023-05-09T12:38:42.743Z,100547.03
2023-05-09T12:41:33.257Z,100552.19
2023-05-09T12:44:05.230Z,100560.91
2023-05-09T12:46:36.893Z,100563.53
2023-05-09T12:49:08.405Z,100562.56
2023-05-09T12:51:38.916Z,100555.63
2023-05-09T12:54:12.518Z,100556.56
2023-05-09T12:56:42.277Z,100548.69
2023-05-09T12:59:16.380Z,100547.84
2023-05-09T13:01:46.765Z,100545.34
2023-05-09T13:04:17.480Z,100550.59
2023-05-09T13:06:52.594Z,100546.31
2023-05-09T13:09:26.466Z,100552.41
2023-05-09T13:11:56.998Z,100539.38
2023-05-09T13:14:28.524Z,100539.47
2023-05-09T13:16:59.039Z,100539.47
2023-05-09T13:19:29.840Z,100540.31
2023-05-09T13:22:00.156Z,100532.44
2023-05-09T13:24:33.976Z,100529.81
2023-05-09T13:27:04.337Z,100533.41
2023-05-09T13:29:34.841Z,100536.97
2023-05-09T13:32:05.080Z,100532.56
2023-05-09T13:34:35.955Z,100534.22
2023-05-09T13:37:06.423Z,100540.44
2023-05-09T13:39:36.930Z,100538.78
2023-05-09T13:42:07.547Z,100533.66
2023-05-09T13:44:38.162Z,100544.16
2023-05-09T13:47:09.363Z,100545.06
2023-05-09T13:49:41.331Z,100542.44
2023-05-09T13:52:11.882Z,100538.16
2023-05-09T13:54:42.460Z,100535.53
2023-05-09T13:57:13.353Z,100546.03
2023-05-09T13:59:44.257Z,100544.38
2023-05-09T14:02:14.737Z,100540.06
2023-05-09T14:04:45.166Z,100536.47
2023-05-09T14:07:16.447Z,100537.44
2023-05-09T14:09:51.955Z,100531.34
2023-05-09T14:12:24.798Z,100540.06
2023-05-09T14:14:55.894Z,100546.16
2023-05-09T14:17:26.329Z,100545.31
2023-05-09T14:19:56.960Z,100548.03
2023-05-09T14:22:27.716Z,100553.28
2023-05-09T14:25:01.021Z,100563.81
2023-05-09T14:27:31.589Z,100565.59
2023-05-09T14:30:02.032Z,100563.09
2023-05-09T14:32:33.214Z,100562.25
2023-05-09T14:35:03.649Z,100562.25
2023-05-09T14:37:34.872Z,100570.97
2023-05-09T14:40:07.170Z,100576.22
2023-05-09T14:42:38.405Z,100573.72
2023-05-09T14:45:12.101Z,100578.97
2023-05-09T14:47:42.643Z,100581.59
2023-05-09T14:50:17.255Z,100578.09
2023-05-09T14:52:47.866Z,100575.59
2023-05-09T14:55:19.573Z,100578.22
2023-05-09T14:57:51.267Z,100579.19
2023-05-09T15:00:22.435Z,100585.28
2023-05-09T15:02:54.078Z,100578.34
2023-05-09T15:05:24.900Z,100588.03
2023-05-09T15:07:55.356Z,100590.66
2023-05-09T15:10:26.036Z,100602.81
2023-05-09T15:12:56.918Z,100594.22
2023-05-09T15:15:27.497Z,100596.84
2023-05-09T15:17:58.058Z,100598.63
2023-05-09T15:20:28.321Z,100592.53
2023-05-09T15:22:58.847Z,100596.13
2023-05-09T15:25:30.044Z,100597.91
2023-05-09T15:28:00.904Z,100595.28
2023-05-09T15:30:32.151Z,100600.53
2023-05-09T15:33:03.211Z,100593.59
2023-05-09T15:35:33.870Z,100595.41
2023-05-09T15:38:04.280Z,100594.56
2023-05-09T15:40:34.903Z,100602.44
2023-05-09T15:43:08.352Z,100589.31
2023-05-09T15:45:48.128Z,100595.50
2023-05-09T15:48:18.947Z,100599.91
2023-05-09T15:50:50.108Z,100593.81
2023-05-09T15:53:20.482Z,100588.69
2023-05-09T15:55:51.484Z,100589.53
2023-05-09T15:58:21.911Z,100591.31
2023-05-09T16:00:52.521Z,100595.75
2023-05-09T16:03:23.478Z,100594.91
2023-05-09T16:05:55.120Z,100588.78
2023-05-09T16:08:25.728Z,100595.81
2023-05-09T16:10:56.355Z,100586.28
2023-05-09T16:13:27.030Z,100594.16
2023-05-09T16:15:58.245Z,100593.31
2023-05-09T16:18:29.092Z,100589.84
2023-05-09T16:20:59.542Z,100592.50
2023-05-09T16:23:30.064Z,100594.28
2023-05-09T16:26:00.591Z,100597.03
2023-05-09T16:28:31.992Z,100602.16
2023-05-09T16:31:06.152Z,100608.34
2023-05-09T16:33:37.269Z,100610.16
2023-05-09T16:36:08.044Z,100605.81
2023-05-09T16:38:39.156Z,100603.31
2023-05-09T16:41:09.476Z,100603.31
2023-05-09T16:43:39.834Z,100602.47
2023-05-09T16:46:11.153Z,100603.44
2023-05-09T16:48:41.493Z,100608.69
2023-05-09T16:51:11.998Z,100599.13
2023-05-09T16:53:42.736Z,100612.25
2023-05-09T16:56:13.462Z,100616.66
2023-05-09T16:58:46.248Z,100613.19
2023-05-09T17:01:17.296Z,100611.53
2023-05-09T17:03:47.949Z,100608.91
2023-05-09T17:06:18.926Z,100596.72
2023-05-09T17:08:50.313Z,100604.59
2023-05-09T17:11:20.746Z,100601.16
2023-05-09T17:13:52.387Z,100603.84
2023-05-09T17:16:25.705Z,100602.94
2023-05-09T17:18:56.111Z,100595.16
2023-05-09T17:21:26.586Z,100601.22
2023-05-09T17:23:57.361Z,100596.09
2023-05-09T17:26:27.690Z,100596.09
2023-05-09T17:28:58.059Z,100597.06
2023-05-09T17:31:28.574Z,100591.81
2023-05-09T17:33:59.070Z,100584.06
2023-05-09T17:36:29.497Z,100581.44
2023-05-09T17:38:59.937Z,100586.69
2023-05-09T17:41:30.182Z,100574.47
2023-05-09T17:44:00.819Z,100571.03
2023-05-09T17:46:32.088Z,100579.84
2023-05-09T17:49:02.598Z,100578.19
2023-05-09T17:51:34.277Z,100566.84
2023-05-09T17:54:05.605Z,100567.78
2023-05-09T17:56:36.158Z,100573.03
2023-05-09T17:59:07.037Z,100560.84
2023-05-09T18:01:38.130Z,100566.94
2023-05-09T18:04:08.552Z,100564.44
2023-05-09T18:06:39.290Z,100567.91
2023-05-09T18:09:09.872Z,100562.75
2023-05-09T18:11:41.026Z,100564.56
2023-05-09T18:14:11.638Z,100567.19
2023-05-09T18:16:42.070Z,100557.63
2023-05-09T18:19:12.747Z,100556.78
2023-05-09T18:21:44.024Z,100557.72
2023-05-09T18:24:16.241Z,100562.13
2023-05-09T18:26:49.438Z,100562.97
2023-05-09T18:29:20.025Z,100569.19
2023-05-09T18:31:50.771Z,100560.47
2023-05-09T18:34:22.052Z,100558.81
2023-05-09T18:36:54.104Z,100563.22
2023-05-09T18:39:25.130Z,100568.47
2023-05-09T18:41:55.915Z,100566.75
2023-05-09T18:44:27.013Z,100563.31
2023-05-09T18:46:59.420Z,100565.09
2023-05-09T18:49:29.793Z,100572.13
2023-05-09T18:52:01.557Z,100574.88
2023-05-09T18:54:31.978Z,100571.41
2023-05-09T18:57:02.632Z,100573.19
2023-05-09T18:59:33.441Z,100570.56
2023-05-09T19:02:03.976Z,100562.75
2023-05-09T19:04:34.575Z,100565.50
2023-05-09T19:07:05.943Z,100568.13
2023-05-09T19:09:36.992Z,100574.34
2023-05-09T19:12:07.707Z,100582.22
2023-05-09T19:14:39.515Z,100578.84
2023-05-09T19:17:09.991Z,100578.84
2023-05-09T19:19:40.895Z,100577.16
2023-05-09T19:22:11.293Z,100573.72
2023-05-09T19:24:42.633Z,100578.13
2023-05-09T19:27:14.080Z,100584.31
2023-05-09T19:29:44.588Z,100580.84
2023-05-09T19:32:15.129Z,100588.69
2023-05-09T19:34:45.767Z,100587.03
2023-05-09T19:37:16.392Z,100587.03
2023-05-09T19:39:46.784Z,100588.81
2023-05-09T19:42:16.982Z,100588.81
2023-05-09T19:44:48.007Z,100588.94
2023-05-09T19:47:19.016Z,100597.66
2023-05-09T19:49:49.359Z,100597.75
2023-05-09T19:52:20.117Z,100608.25
2023-05-09T19:54:50.934Z,100602.19
2023-05-09T19:57:22.149Z,100603.09
2023-05-09T19:59:53.490Z,100600.59
2023-05-09T20:02:24.118Z,100605.84
2023-05-09T20:04:55.899Z,100613.81
2023-05-09T20:07:26.280Z,100612.13
2023-05-09T20:09:56.668Z,100613.91
2023-05-09T20:12:28.676Z,100615.69
2023-05-09T20:15:01.106Z,100614.03
2023-05-09T20:17:31.530Z,100618.44
2023-05-09T20:20:02.539Z,100625.47
2023-05-09T20:22:32.860Z,100620.22
2023-05-09T20:25:04.115Z,100621.19
2023-05-09T20:27:36.905Z,100624.72
2023-05-09T20:30:07.918Z,100626.50
2023-05-09T20:32:38.325Z,100627.34
2023-05-09T20:35:09.700Z,100625.69
2023-05-09T20:37:41.164Z,100629.25
2023-05-09T20:40:11.893Z,100637.25
2023-05-09T20:42:42.514Z,100639.03
2023-05-09T20:45:13.135Z,100640.78
2023-05-09T20:47:43.500Z,100638.16
2023-05-09T20:50:14.169Z,100645.19
2023-05-09T20:52:44.828Z,100643.53
2023-05-09T20:55:15.188Z,100635.75
2023-05-09T20:57:46.048Z,100642.69
2023-05-09T21:00:16.787Z,100648.03
2023-05-09T21:05:19.111Z,100652.53
2023-05-09T21:07:49.450Z,100642.03
2023-05-09T21:10:19.876Z,100655.28
2023-05-09T21:12:51.117Z,100651.81
2023-05-09T21:15:21.611Z,100653.59
2023-05-09T21:17:52.133Z,100660.63
2023-05-09T21:20:22.648Z,100661.56
2023-05-09T21:22:53.022Z,100668.59
2023-05-09T21:25:23.565Z,100670.38
2023-05-09T21:27:53.925Z,100667.75
2023-05-09T21:30:24.225Z,100663.47
2023-05-09T21:32:54.723Z,100673.13
2023-05-09T21:35:25.393Z,100677.53
2023-05-09T21:37:55.936Z,100672.28
2023-05-09T21:40:26.355Z,100681.09
2023-05-09T21:42:57.405Z,100682.00
2023-05-09T21:45:28.021Z,100681.19
2023-05-09T21:47:59.312Z,100684.75
2023-05-09T21:50:29.793Z,100688.22
2023-05-09T21:53:01.872Z,100679.63
2023-05-09T21:55:32.352Z,100678.66
2023-05-09T21:58:03.083Z,100685.69
2023-05-09T22:00:33.295Z,100686.66
2023-05-09T22:03:04.149Z,100689.28
2023-05-09T22:05:34.709Z,100683.19
2023-05-09T22:08:05.129Z,100697.22
2023-05-09T22:10:35.619Z,100699.84
2023-05-09T22:13:06.116Z,100699.00
2023-05-09T22:15:36.847Z,100705.09
2023-05-09T22:18:08.240Z,100705.09
2023-05-09T22:20:38.726Z,100708.66
2023-05-09T22:23:09.119Z,100714.75
2023-05-09T22:25:39.497Z,100714.75
2023-05-09T22:28:10.668Z,100727.00
2023-05-09T22:30:41.140Z,100730.47
2023-05-09T22:33:12.719Z,100733.94
2023-05-09T22:35:43.290Z,100731.31
2023-05-09T22:38:13.734Z,100736.56
2023-05-09T22:40:44.595Z,100744.41
2023-05-09T22:43:15.122Z,100754.06
2023-05-09T22:45:46.684Z,100749.78
2023-05-09T22:48:17.413Z,100753.13
2023-05-09T22:50:47.866Z,100758.38
2023-05-09T22:53:18.641Z,100758.28
2023-05-09T22:55:49.267Z,100753.88
2023-05-09T22:58:19.732Z,100762.47
2023-05-09T23:00:50.174Z,100754.53
2023-05-09T23:03:20.799Z,100771.69
2023-05-09T23:05:51.104Z,100774.25
2023-05-09T23:08:22.528Z,100778.66
2023-05-09T23:10:53.438Z,100782.00
2023-05-09T23:13:24.317Z,100791.47
2023-05-09T23:15:55.093Z,100787.06
2023-05-09T23:18:25.667Z,100779.91
2023-05-09T23:20:56.304Z,100793.03
2023-05-09T23:23:27.078Z,100799.03
2023-05-09T23:25:58.207Z,100792.91
2023-05-09T23:28:28.684Z,100792.91
2023-05-09T23:30:59.124Z,100781.50
2023-05-09T23:33:30.428Z,100781.41
2023-05-09T23:36:04.646Z,100776.88
2023-05-09T23:38:37.613Z,100779.41
2023-05-09T23:41:08.523Z,100778.56
2023-05-09T23:43:39.611Z,100788.97
2023-05-09T23:46:10.464Z,100799.34
2023-05-09T23:48:40.979Z,100786.22
2023-05-09T23:51:12.293Z,100785.38
2023-05-09T23:53:43.151Z,100785.19
2023-05-09T23:56:14.290Z,100782.44
2023-05-09T23:58:44.713Z,100785.59
